sensor_id;sensor_type;location;lat;lon;timestamp;P1;durP1;ratioP1;P2;durP2;ratioP2
6727;SDS011;3401;52.504;13.430;2022-07-25T00:00:27;2.53;;;1.63;;
6727;SDS011;3401;52.504;13.430;2022-07-25T00:02:57;2.33;;;1.90;;
6727;SDS011;3401;52.504;13.430;2022-07-25T00:05:24;3.07;;;1.90;;
6727;SDS011;3401;52.504;13.430;2022-07-25T00:07:52;1.60;;;1.50;;
6727;SDS011;3401;52.504;13.430;2022-07-25T00:10:20;2.07;;;1.60;;
6727;SDS011;3401;52.504;13.430;2022-07-25T00:12:48;1.80;;;1.70;;
6727;SDS011;3401;52.504;13.430;2022-07-25T00:15:16;15.73;;;1.97;;
6727;SDS011;3401;52.504;13.430;2022-07-25T00:17:44;1.70;;;1.50;;
6727;SDS011;3401;52.504;13.430;2022-07-25T00:20:14;3.50;;;1.70;;
6727;SDS011;3401;52.504;13.430;2022-07-25T00:22:42;2.40;;;1.57;;
6727;SDS011;3401;52.504;13.430;2022-07-25T00:25:10;2.20;;;1.83;;
6727;SDS011;3401;52.504;13.430;2022-07-25T00:27:38;2.03;;;1.40;;
6727;SDS011;3401;52.504;13.430;2022-07-25T00:30:06;1.83;;;1.53;;
6727;SDS011;3401;52.504;13.430;2022-07-25T00:32:35;2.20;;;1.60;;
6727;SDS011;3401;52.504;13.430;2022-07-25T00:35:03;2.40;;;1.53;;
6727;SDS011;3401;52.504;13.430;2022-07-25T00:37:33;1.90;;;1.60;;
6727;SDS011;3401;52.504;13.430;2022-07-25T00:40:00;1.80;;;1.67;;
6727;SDS011;3401;52.504;13.430;2022-07-25T00:42:29;5.27;;;4.77;;
6727;SDS011;3401;52.504;13.430;2022-07-25T00:44:56;36.23;;;33.60;;
6727;SDS011;3401;52.504;13.430;2022-07-25T00:47:26;833.67;;;769.53;;
6727;SDS011;3401;52.504;13.430;2022-07-25T00:49:53;390.67;;;359.17;;
6727;SDS011;3401;52.504;13.430;2022-07-25T00:52:21;242.23;;;224.33;;
6727;SDS011;3401;52.504;13.430;2022-07-25T00:54:51;31.67;;;28.27;;
6727;SDS011;3401;52.504;13.430;2022-07-25T00:57:19;6.17;;;1.60;;
6727;SDS011;3401;52.504;13.430;2022-07-25T00:59:47;3.13;;;1.70;;
6727;SDS011;3401;52.504;13.430;2022-07-25T01:02:15;49.67;;;46.00;;
6727;SDS011;3401;52.504;13.430;2022-07-25T01:04:43;526.10;;;483.27;;
6727;SDS011;3401;52.504;13.430;2022-07-25T01:07:10;320.63;;;294.10;;
6727;SDS011;3401;52.504;13.430;2022-07-25T01:09:38;217.17;;;200.67;;
6727;SDS011;3401;52.504;13.430;2022-07-25T01:12:08;64.93;;;59.83;;
6727;SDS011;3401;52.504;13.430;2022-07-25T01:14:36;832.67;;;765.93;;
6727;SDS011;3401;52.504;13.430;2022-07-25T01:17:04;310.77;;;287.70;;
6727;SDS011;3401;52.504;13.430;2022-07-25T01:19:32;737.20;;;679.07;;
6727;SDS011;3401;52.504;13.430;2022-07-25T01:22:01;880.67;;;806.03;;
6727;SDS011;3401;52.504;13.430;2022-07-25T01:24:29;953.03;;;876.60;;
6727;SDS011;3401;52.504;13.430;2022-07-25T01:26:57;580.03;;;532.33;;
6727;SDS011;3401;52.504;13.430;2022-07-25T01:29:25;744.87;;;684.90;;
6727;SDS011;3401;52.504;13.430;2022-07-25T01:31:53;832.90;;;763.37;;
6727;SDS011;3401;52.504;13.430;2022-07-25T01:34:21;827.53;;;762.93;;
6727;SDS011;3401;52.504;13.430;2022-07-25T01:36:49;643.83;;;589.87;;
6727;SDS011;3401;52.504;13.430;2022-07-25T01:39:18;979.00;;;900.63;;
6727;SDS011;3401;52.504;13.430;2022-07-25T01:41:46;949.57;;;875.37;;
6727;SDS011;3401;52.504;13.430;2022-07-25T01:44:14;1079.40;;;978.70;;
6727;SDS011;3401;52.504;13.430;2022-07-25T01:46:42;1063.80;;;965.03;;
6727;SDS011;3401;52.504;13.430;2022-07-25T01:49:10;1075.37;;;965.97;;
6727;SDS011;3401;52.504;13.430;2022-07-25T01:51:38;1027.00;;;922.53;;
6727;SDS011;3401;52.504;13.430;2022-07-25T01:54:06;1050.40;;;957.40;;
6727;SDS011;3401;52.504;13.430;2022-07-25T01:56:41;1028.53;;;935.17;;
6727;SDS011;3401;52.504;13.430;2022-07-25T01:59:12;1026.03;;;933.43;;
6727;SDS011;3401;52.504;13.430;2022-07-25T02:01:40;1065.37;;;968.70;;
6727;SDS011;3401;52.504;13.430;2022-07-25T02:04:08;1008.30;;;920.53;;
6727;SDS011;3401;52.504;13.430;2022-07-25T02:06:36;992.50;;;918.50;;
6727;SDS011;3401;52.504;13.430;2022-07-25T02:09:06;1040.93;;;954.03;;
6727;SDS011;3401;52.504;13.430;2022-07-25T02:11:34;1054.07;;;965.97;;
6727;SDS011;3401;52.504;13.430;2022-07-25T02:14:04;995.23;;;917.83;;
6727;SDS011;3401;52.504;13.430;2022-07-25T02:16:32;1005.93;;;929.67;;
6727;SDS011;3401;52.504;13.430;2022-07-25T02:19:01;1010.37;;;924.50;;
6727;SDS011;3401;52.504;13.430;2022-07-25T02:21:29;433.77;;;399.80;;
6727;SDS011;3401;52.504;13.430;2022-07-25T02:23:57;179.50;;;166.67;;
6727;SDS011;3401;52.504;13.430;2022-07-25T02:26:25;679.23;;;623.33;;
6727;SDS011;3401;52.504;13.430;2022-07-25T02:28:54;900.40;;;831.60;;
6727;SDS011;3401;52.504;13.430;2022-07-25T02:31:22;1037.70;;;954.83;;
6727;SDS011;3401;52.504;13.430;2022-07-25T02:33:50;1039.27;;;952.77;;
6727;SDS011;3401;52.504;13.430;2022-07-25T02:36:17;1032.53;;;934.13;;
6727;SDS011;3401;52.504;13.430;2022-07-25T02:38:45;691.53;;;637.90;;
6727;SDS011;3401;52.504;13.430;2022-07-25T02:41:13;132.60;;;124.53;;
6727;SDS011;3401;52.504;13.430;2022-07-25T02:43:42;389.07;;;358.83;;
6727;SDS011;3401;52.504;13.430;2022-07-25T02:46:11;877.63;;;809.17;;
6727;SDS011;3401;52.504;13.430;2022-07-25T02:48:40;811.33;;;748.77;;
6727;SDS011;3401;52.504;13.430;2022-07-25T02:51:07;997.87;;;917.40;;
6727;SDS011;3401;52.504;13.430;2022-07-25T02:53:35;945.87;;;873.90;;
6727;SDS011;3401;52.504;13.430;2022-07-25T02:56:25;1007.80;;;914.87;;
6727;SDS011;3401;52.504;13.430;2022-07-25T02:58:55;1035.30;;;942.57;;
6727;SDS011;3401;52.504;13.430;2022-07-25T03:01:24;1036.17;;;941.90;;
6727;SDS011;3401;52.504;13.430;2022-07-25T03:03:53;1027.03;;;925.37;;
6727;SDS011;3401;52.504;13.430;2022-07-25T03:06:21;1064.90;;;961.97;;
6727;SDS011;3401;52.504;13.430;2022-07-25T03:08:48;1076.07;;;976.37;;
6727;SDS011;3401;52.504;13.430;2022-07-25T03:11:16;1038.60;;;931.03;;
6727;SDS011;3401;52.504;13.430;2022-07-25T03:13:44;1028.20;;;919.17;;
6727;SDS011;3401;52.504;13.430;2022-07-25T03:16:12;1046.00;;;931.90;;
6727;SDS011;3401;52.504;13.430;2022-07-25T03:18:42;918.17;;;838.93;;
6727;SDS011;3401;52.504;13.430;2022-07-25T03:21:10;1022.00;;;926.27;;
6727;SDS011;3401;52.504;13.430;2022-07-25T03:23:38;1030.93;;;939.70;;
6727;SDS011;3401;52.504;13.430;2022-07-25T03:26:06;1013.57;;;925.53;;
6727;SDS011;3401;52.504;13.430;2022-07-25T03:28:33;1056.00;;;946.10;;
6727;SDS011;3401;52.504;13.430;2022-07-25T03:31:04;1067.13;;;955.13;;
6727;SDS011;3401;52.504;13.430;2022-07-25T03:33:32;1058.07;;;943.07;;
6727;SDS011;3401;52.504;13.430;2022-07-25T03:36:04;1063.43;;;948.83;;
6727;SDS011;3401;52.504;13.430;2022-07-25T03:38:32;1039.17;;;916.30;;
6727;SDS011;3401;52.504;13.430;2022-07-25T03:41:00;1074.03;;;962.40;;
6727;SDS011;3401;52.504;13.430;2022-07-25T03:43:30;1071.73;;;955.97;;
6727;SDS011;3401;52.504;13.430;2022-07-25T03:45:58;1037.97;;;925.23;;
6727;SDS011;3401;52.504;13.430;2022-07-25T03:48:30;1059.40;;;952.97;;
6727;SDS011;3401;52.504;13.430;2022-07-25T03:50:58;1029.77;;;941.53;;
6727;SDS011;3401;52.504;13.430;2022-07-25T03:53:33;1055.50;;;962.73;;
6727;SDS011;3401;52.504;13.430;2022-07-25T03:56:22;1072.90;;;959.53;;
6727;SDS011;3401;52.504;13.430;2022-07-25T03:58:49;1067.07;;;947.80;;
6727;SDS011;3401;52.504;13.430;2022-07-25T04:01:17;1063.50;;;941.20;;
6727;SDS011;3401;52.504;13.430;2022-07-25T04:03:47;1028.03;;;895.80;;
6727;SDS011;3401;52.504;13.430;2022-07-25T04:06:15;747.77;;;684.83;;
6727;SDS011;3401;52.504;13.430;2022-07-25T04:08:44;898.70;;;819.27;;
6727;SDS011;3401;52.504;13.430;2022-07-25T04:11:12;1056.10;;;941.10;;
6727;SDS011;3401;52.504;13.430;2022-07-25T04:13:40;992.17;;;912.00;;
6727;SDS011;3401;52.504;13.430;2022-07-25T04:16:08;1057.97;;;971.90;;
6727;SDS011;3401;52.504;13.430;2022-07-25T04:18:48;968.80;;;879.57;;
6727;SDS011;3401;52.504;13.430;2022-07-25T04:21:17;963.80;;;882.57;;
6727;SDS011;3401;52.504;13.430;2022-07-25T04:23:46;999.70;;;915.53;;
6727;SDS011;3401;52.504;13.430;2022-07-25T04:26:14;1027.53;;;941.23;;
6727;SDS011;3401;52.504;13.430;2022-07-25T04:28:42;1078.90;;;973.33;;
6727;SDS011;3401;52.504;13.430;2022-07-25T04:31:10;1067.80;;;966.77;;
6727;SDS011;3401;52.504;13.430;2022-07-25T04:33:38;839.97;;;755.60;;
6727;SDS011;3401;52.504;13.430;2022-07-25T04:36:07;872.53;;;805.10;;
6727;SDS011;3401;52.504;13.430;2022-07-25T04:38:35;889.80;;;821.07;;
6727;SDS011;3401;52.504;13.430;2022-07-25T04:41:05;765.57;;;706.67;;
6727;SDS011;3401;52.504;13.430;2022-07-25T04:43:33;1037.03;;;946.13;;
6727;SDS011;3401;52.504;13.430;2022-07-25T04:46:05;817.97;;;750.47;;
6727;SDS011;3401;52.504;13.430;2022-07-25T04:48:33;359.10;;;331.50;;
6727;SDS011;3401;52.504;13.430;2022-07-25T04:51:01;720.13;;;660.67;;
6727;SDS011;3401;52.504;13.430;2022-07-25T04:53:31;551.50;;;504.87;;
6727;SDS011;3401;52.504;13.430;2022-07-25T04:55:59;1015.10;;;920.77;;
6727;SDS011;3401;52.504;13.430;2022-07-25T04:58:31;1068.10;;;954.03;;
6727;SDS011;3401;52.504;13.430;2022-07-25T05:00:59;1080.20;;;964.53;;
6727;SDS011;3401;52.504;13.430;2022-07-25T05:03:29;1097.20;;;999.57;;
6727;SDS011;3401;52.504;13.430;2022-07-25T05:05:56;1092.63;;;991.00;;
6727;SDS011;3401;52.504;13.430;2022-07-25T05:08:24;1084.73;;;990.80;;
6727;SDS011;3401;52.504;13.430;2022-07-25T05:10:52;1111.03;;;999.90;;
6727;SDS011;3401;52.504;13.430;2022-07-25T05:13:20;1139.30;;;999.90;;
6727;SDS011;3401;52.504;13.430;2022-07-25T05:15:49;1147.67;;;999.90;;
6727;SDS011;3401;52.504;13.430;2022-07-25T05:18:17;1125.00;;;999.90;;
6727;SDS011;3401;52.504;13.430;2022-07-25T05:20:45;1129.53;;;999.90;;
6727;SDS011;3401;52.504;13.430;2022-07-25T05:23:13;1130.33;;;999.90;;
6727;SDS011;3401;52.504;13.430;2022-07-25T05:25:41;1088.23;;;999.50;;
6727;SDS011;3401;52.504;13.430;2022-07-25T05:28:09;1087.57;;;999.70;;
6727;SDS011;3401;52.504;13.430;2022-07-25T05:30:40;1072.95;;;988.30;;
6727;SDS011;3401;52.504;13.430;2022-07-25T05:33:09;1082.00;;;997.60;;
6727;SDS011;3401;52.504;13.430;2022-07-25T05:35:37;1079.57;;;995.70;;
6727;SDS011;3401;52.504;13.430;2022-07-25T05:38:04;1090.70;;;997.67;;
6727;SDS011;3401;52.504;13.430;2022-07-25T05:40:32;1126.80;;;999.90;;
6727;SDS011;3401;52.504;13.430;2022-07-25T05:43:00;1135.43;;;999.90;;
6727;SDS011;3401;52.504;13.430;2022-07-25T05:45:29;1147.93;;;999.90;;
6727;SDS011;3401;52.504;13.430;2022-07-25T05:47:57;1091.73;;;999.87;;
6727;SDS011;3401;52.504;13.430;2022-07-25T05:50:26;888.90;;;816.03;;
6727;SDS011;3401;52.504;13.430;2022-07-25T05:52:54;1054.90;;;971.13;;
6727;SDS011;3401;52.504;13.430;2022-07-25T05:55:22;821.60;;;752.57;;
6727;SDS011;3401;52.504;13.430;2022-07-25T05:57:50;1140.93;;;999.90;;
6727;SDS011;3401;52.504;13.430;2022-07-25T06:00:17;772.20;;;707.10;;
6727;SDS011;3401;52.504;13.430;2022-07-25T06:02:45;695.83;;;635.63;;
6727;SDS011;3401;52.504;13.430;2022-07-25T06:05:14;791.30;;;724.27;;
6727;SDS011;3401;52.504;13.430;2022-07-25T06:07:43;744.00;;;679.87;;
6727;SDS011;3401;52.504;13.430;2022-07-25T06:10:11;771.93;;;705.63;;
6727;SDS011;3401;52.504;13.430;2022-07-25T06:12:38;830.87;;;761.03;;
6727;SDS011;3401;52.504;13.430;2022-07-25T06:15:08;794.87;;;727.07;;
6727;SDS011;3401;52.504;13.430;2022-07-25T06:17:47;680.83;;;621.30;;
6727;SDS011;3401;52.504;13.430;2022-07-25T06:20:15;656.57;;;598.93;;
6727;SDS011;3401;52.504;13.430;2022-07-25T06:22:45;617.87;;;562.90;;
6727;SDS011;3401;52.504;13.430;2022-07-25T06:25:13;612.10;;;557.20;;
6727;SDS011;3401;52.504;13.430;2022-07-25T06:27:41;592.33;;;538.90;;
6727;SDS011;3401;52.504;13.430;2022-07-25T06:30:09;515.70;;;467.57;;
6727;SDS011;3401;52.504;13.430;2022-07-25T06:32:45;519.53;;;471.20;;
6727;SDS011;3401;52.504;13.430;2022-07-25T06:35:13;497.83;;;451.80;;
6727;SDS011;3401;52.504;13.430;2022-07-25T06:37:41;518.27;;;470.33;;
6727;SDS011;3401;52.504;13.430;2022-07-25T06:40:10;455.70;;;414.30;;
6727;SDS011;3401;52.504;13.430;2022-07-25T06:42:39;432.30;;;393.43;;
6727;SDS011;3401;52.504;13.430;2022-07-25T06:45:08;403.63;;;368.40;;
6727;SDS011;3401;52.504;13.430;2022-07-25T06:47:37;424.27;;;386.57;;
6727;SDS011;3401;52.504;13.430;2022-07-25T06:50:06;417.67;;;379.80;;
6727;SDS011;3401;52.504;13.430;2022-07-25T06:52:37;386.47;;;353.17;;
6727;SDS011;3401;52.504;13.430;2022-07-25T06:55:05;349.77;;;320.40;;
6727;SDS011;3401;52.504;13.430;2022-07-25T06:57:36;408.73;;;372.33;;
6727;SDS011;3401;52.504;13.430;2022-07-25T07:00:05;313.77;;;287.60;;
6727;SDS011;3401;52.504;13.430;2022-07-25T07:02:45;342.20;;;313.60;;
6727;SDS011;3401;52.504;13.430;2022-07-25T07:05:14;350.60;;;320.57;;
6727;SDS011;3401;52.504;13.430;2022-07-25T07:07:42;361.73;;;330.83;;
6727;SDS011;3401;52.504;13.430;2022-07-25T07:10:13;501.90;;;455.33;;
6727;SDS011;3401;52.504;13.430;2022-07-25T07:12:42;386.43;;;352.63;;
6727;SDS011;3401;52.504;13.430;2022-07-25T07:15:10;386.87;;;352.93;;
6727;SDS011;3401;52.504;13.430;2022-07-25T07:17:39;572.90;;;519.50;;
6727;SDS011;3401;52.504;13.430;2022-07-25T07:20:07;381.20;;;347.57;;
6727;SDS011;3401;52.504;13.430;2022-07-25T07:22:42;323.83;;;296.73;;
6727;SDS011;3401;52.504;13.430;2022-07-25T07:25:11;313.17;;;287.07;;
6727;SDS011;3401;52.504;13.430;2022-07-25T07:27:39;452.73;;;408.67;;
6727;SDS011;3401;52.504;13.430;2022-07-25T07:30:10;196.43;;;181.47;;
6727;SDS011;3401;52.504;13.430;2022-07-25T07:32:40;155.33;;;144.20;;
6727;SDS011;3401;52.504;13.430;2022-07-25T07:35:08;259.77;;;238.63;;
6727;SDS011;3401;52.504;13.430;2022-07-25T07:37:37;295.77;;;271.23;;
6727;SDS011;3401;52.504;13.430;2022-07-25T07:40:09;287.47;;;263.70;;
6727;SDS011;3401;52.504;13.430;2022-07-25T07:42:44;300.30;;;274.90;;
6727;SDS011;3401;52.504;13.430;2022-07-25T07:45:15;320.13;;;291.87;;
6727;SDS011;3401;52.504;13.430;2022-07-25T07:47:45;368.90;;;336.30;;
6727;SDS011;3401;52.504;13.430;2022-07-25T07:50:14;337.73;;;308.50;;
6727;SDS011;3401;52.504;13.430;2022-07-25T07:52:43;433.20;;;392.40;;
6727;SDS011;3401;52.504;13.430;2022-07-25T07:55:11;470.33;;;425.07;;
6727;SDS011;3401;52.504;13.430;2022-07-25T07:57:57;447.97;;;405.77;;
6727;SDS011;3401;52.504;13.430;2022-07-25T08:00:27;508.00;;;458.87;;
6727;SDS011;3401;52.504;13.430;2022-07-25T08:02:57;503.37;;;454.60;;
6727;SDS011;3401;52.504;13.430;2022-07-25T08:05:27;542.33;;;490.33;;
6727;SDS011;3401;52.504;13.430;2022-07-25T08:07:57;520.50;;;470.80;;
6727;SDS011;3401;52.504;13.430;2022-07-25T08:10:26;534.63;;;483.50;;
6727;SDS011;3401;52.504;13.430;2022-07-25T08:12:56;511.20;;;461.77;;
6727;SDS011;3401;52.504;13.430;2022-07-25T08:15:24;519.03;;;468.83;;
6727;SDS011;3401;52.504;13.430;2022-07-25T08:17:54;525.53;;;474.90;;
6727;SDS011;3401;52.504;13.430;2022-07-25T08:20:21;505.77;;;457.03;;
6727;SDS011;3401;52.504;13.430;2022-07-25T08:23:05;514.87;;;465.73;;
6727;SDS011;3401;52.504;13.430;2022-07-25T08:25:36;525.03;;;474.63;;
6727;SDS011;3401;52.504;13.430;2022-07-25T08:28:04;535.87;;;484.47;;
6727;SDS011;3401;52.504;13.430;2022-07-25T08:30:33;500.60;;;452.47;;
6727;SDS011;3401;52.504;13.430;2022-07-25T08:33:03;468.50;;;423.40;;
6727;SDS011;3401;52.504;13.430;2022-07-25T08:35:33;479.90;;;433.23;;
6727;SDS011;3401;52.504;13.430;2022-07-25T08:38:02;502.07;;;453.93;;
6727;SDS011;3401;52.504;13.430;2022-07-25T08:40:31;555.63;;;502.90;;
6727;SDS011;3401;52.504;13.430;2022-07-25T08:43:00;570.47;;;516.37;;
6727;SDS011;3401;52.504;13.430;2022-07-25T08:45:28;505.93;;;457.53;;
6727;SDS011;3401;52.504;13.430;2022-07-25T08:47:56;597.40;;;540.77;;
6727;SDS011;3401;52.504;13.430;2022-07-25T08:50:26;595.70;;;539.23;;
6727;SDS011;3401;52.504;13.430;2022-07-25T08:52:55;609.00;;;551.50;;
6727;SDS011;3401;52.504;13.430;2022-07-25T08:55:43;603.80;;;546.67;;
6727;SDS011;3401;52.504;13.430;2022-07-25T08:58:12;562.53;;;508.90;;
6727;SDS011;3401;52.504;13.430;2022-07-25T09:00:41;554.60;;;501.07;;
6727;SDS011;3401;52.504;13.430;2022-07-25T09:03:09;530.13;;;478.40;;
6727;SDS011;3401;52.504;13.430;2022-07-25T09:05:39;567.40;;;512.20;;
6727;SDS011;3401;52.504;13.430;2022-07-25T09:08:07;564.53;;;510.57;;
6727;SDS011;3401;52.504;13.430;2022-07-25T09:10:36;620.30;;;561.80;;
6727;SDS011;3401;52.504;13.430;2022-07-25T09:13:05;560.30;;;506.60;;
6727;SDS011;3401;52.504;13.430;2022-07-25T09:15:37;534.27;;;482.70;;
6727;SDS011;3401;52.504;13.430;2022-07-25T09:18:06;599.63;;;541.67;;
6727;SDS011;3401;52.504;13.430;2022-07-25T09:20:37;709.10;;;642.40;;
6727;SDS011;3401;52.504;13.430;2022-07-25T09:23:07;864.23;;;784.53;;
6727;SDS011;3401;52.504;13.430;2022-07-25T09:25:35;594.70;;;537.60;;
6727;SDS011;3401;52.504;13.430;2022-07-25T09:28:11;543.03;;;490.50;;
6727;SDS011;3401;52.504;13.430;2022-07-25T09:30:40;549.23;;;495.93;;
6727;SDS011;3401;52.504;13.430;2022-07-25T09:33:20;678.87;;;614.17;;
6727;SDS011;3401;52.504;13.430;2022-07-25T09:35:50;906.07;;;821.93;;
6727;SDS011;3401;52.504;13.430;2022-07-25T09:38:19;799.47;;;724.80;;
6727;SDS011;3401;52.504;13.430;2022-07-25T09:40:54;700.37;;;633.40;;
6727;SDS011;3401;52.504;13.430;2022-07-25T09:43:23;750.93;;;680.40;;
6727;SDS011;3401;52.504;13.430;2022-07-25T09:46:06;518.37;;;467.53;;
6727;SDS011;3401;52.504;13.430;2022-07-25T09:48:34;857.80;;;777.97;;
6727;SDS011;3401;52.504;13.430;2022-07-25T09:51:07;780.97;;;708.03;;
6727;SDS011;3401;52.504;13.430;2022-07-25T09:53:35;871.13;;;790.10;;
6727;SDS011;3401;52.504;13.430;2022-07-25T09:56:06;875.00;;;793.77;;
6727;SDS011;3401;52.504;13.430;2022-07-25T09:58:34;853.43;;;774.50;;
6727;SDS011;3401;52.504;13.430;2022-07-25T10:01:05;846.93;;;768.63;;
6727;SDS011;3401;52.504;13.430;2022-07-25T10:03:37;538.63;;;487.07;;
6727;SDS011;3401;52.504;13.430;2022-07-25T10:06:16;333.00;;;303.30;;
6727;SDS011;3401;52.504;13.430;2022-07-25T10:08:47;766.43;;;694.83;;
6727;SDS011;3401;52.504;13.430;2022-07-25T10:11:19;800.43;;;725.33;;
6727;SDS011;3401;52.504;13.430;2022-07-25T10:13:48;817.60;;;741.50;;
6727;SDS011;3401;52.504;13.430;2022-07-25T10:16:17;768.60;;;696.40;;
6727;SDS011;3401;52.504;13.430;2022-07-25T10:18:49;780.23;;;707.17;;
6727;SDS011;3401;52.504;13.430;2022-07-25T10:21:20;780.37;;;707.03;;
6727;SDS011;3401;52.504;13.430;2022-07-25T10:23:59;414.07;;;373.87;;
6727;SDS011;3401;52.504;13.430;2022-07-25T10:26:29;329.90;;;300.33;;
6727;SDS011;3401;52.504;13.430;2022-07-25T10:28:58;328.53;;;299.03;;
6727;SDS011;3401;52.504;13.430;2022-07-25T10:31:34;367.23;;;332.30;;
6727;SDS011;3401;52.504;13.430;2022-07-25T10:34:04;372.23;;;337.53;;
6727;SDS011;3401;52.504;13.430;2022-07-25T10:36:42;378.13;;;342.93;;
6727;SDS011;3401;52.504;13.430;2022-07-25T10:39:11;396.17;;;358.57;;
6727;SDS011;3401;52.504;13.430;2022-07-25T10:41:41;407.03;;;367.57;;
6727;SDS011;3401;52.504;13.430;2022-07-25T10:44:10;351.20;;;319.00;;
6727;SDS011;3401;52.504;13.430;2022-07-25T10:46:40;343.17;;;311.77;;
6727;SDS011;3401;52.504;13.430;2022-07-25T10:49:15;897.40;;;812.87;;
6727;SDS011;3401;52.504;13.430;2022-07-25T10:51:53;898.40;;;813.83;;
6727;SDS011;3401;52.504;13.430;2022-07-25T10:54:22;841.37;;;761.67;;
6727;SDS011;3401;52.504;13.430;2022-07-25T10:56:51;876.83;;;794.53;;
6727;SDS011;3401;52.504;13.430;2022-07-25T10:59:24;861.60;;;780.03;;
6727;SDS011;3401;52.504;13.430;2022-07-25T11:01:57;839.77;;;759.73;;
6727;SDS011;3401;52.504;13.430;2022-07-25T11:04:25;745.93;;;673.57;;
6727;SDS011;3401;52.504;13.430;2022-07-25T11:06:54;742.40;;;670.60;;
6727;SDS011;3401;52.504;13.430;2022-07-25T11:09:23;753.10;;;680.70;;
6727;SDS011;3401;52.504;13.430;2022-07-25T11:11:54;904.83;;;819.00;;
6727;SDS011;3401;52.504;13.430;2022-07-25T11:14:23;899.13;;;814.23;;
6727;SDS011;3401;52.504;13.430;2022-07-25T11:16:52;930.37;;;842.70;;
6727;SDS011;3401;52.504;13.430;2022-07-25T11:19:22;465.53;;;418.53;;
6727;SDS011;3401;52.504;13.430;2022-07-25T11:21:52;539.43;;;485.70;;
6727;SDS011;3401;52.504;13.430;2022-07-25T11:24:32;539.17;;;485.37;;
6727;SDS011;3401;52.504;13.430;2022-07-25T11:27:01;545.03;;;490.63;;
6727;SDS011;3401;52.504;13.430;2022-07-25T11:29:35;540.87;;;487.53;;
6727;SDS011;3401;52.504;13.430;2022-07-25T11:32:05;588.03;;;529.63;;
6727;SDS011;3401;52.504;13.430;2022-07-25T11:34:34;865.07;;;782.17;;
6727;SDS011;3401;52.504;13.430;2022-07-25T11:37:06;590.60;;;531.40;;
6727;SDS011;3401;52.504;13.430;2022-07-25T11:39:39;584.50;;;526.10;;
6727;SDS011;3401;52.504;13.430;2022-07-25T11:42:09;451.73;;;405.13;;
6727;SDS011;3401;52.504;13.430;2022-07-25T11:44:39;797.37;;;719.30;;
6727;SDS011;3401;52.504;13.430;2022-07-25T11:47:21;921.47;;;832.50;;
6727;SDS011;3401;52.504;13.430;2022-07-25T11:49:51;682.67;;;615.33;;
6727;SDS011;3401;52.504;13.430;2022-07-25T11:52:21;993.90;;;896.97;;
6727;SDS011;3401;52.504;13.430;2022-07-25T11:54:53;758.17;;;683.43;;
6727;SDS011;3401;52.504;13.430;2022-07-25T11:57:22;993.13;;;895.43;;
6727;SDS011;3401;52.504;13.430;2022-07-25T11:59:51;970.23;;;875.63;;
6727;SDS011;3401;52.504;13.430;2022-07-25T12:02:20;5.73;;;5.13;;
6727;SDS011;3401;52.504;13.430;2022-07-25T12:04:54;10.37;;;4.80;;
6727;SDS011;3401;52.504;13.430;2022-07-25T12:07:34;4.13;;;3.73;;
6727;SDS011;3401;52.504;13.430;2022-07-25T12:10:08;6.33;;;4.77;;
6727;SDS011;3401;52.504;13.430;2022-07-25T12:12:41;6.50;;;5.47;;
6727;SDS011;3401;52.504;13.430;2022-07-25T12:15:10;5.27;;;4.47;;
6727;SDS011;3401;52.504;13.430;2022-07-25T12:17:39;5.63;;;4.63;;
6727;SDS011;3401;52.504;13.430;2022-07-25T12:20:15;5.40;;;4.80;;
6727;SDS011;3401;52.504;13.430;2022-07-25T12:22:44;5.83;;;5.00;;
6727;SDS011;3401;52.504;13.430;2022-07-25T12:25:13;5.80;;;5.30;;
6727;SDS011;3401;52.504;13.430;2022-07-25T12:27:42;6.87;;;5.03;;
6727;SDS011;3401;52.504;13.430;2022-07-25T12:30:10;5.60;;;4.87;;
6727;SDS011;3401;52.504;13.430;2022-07-25T12:32:40;6.10;;;5.17;;
6727;SDS011;3401;52.504;13.430;2022-07-25T12:35:09;7.30;;;5.20;;
6727;SDS011;3401;52.504;13.430;2022-07-25T12:37:38;6.93;;;4.63;;
6727;SDS011;3401;52.504;13.430;2022-07-25T12:40:07;10.03;;;4.93;;
6727;SDS011;3401;52.504;13.430;2022-07-25T12:42:38;5.27;;;4.63;;
6727;SDS011;3401;52.504;13.430;2022-07-25T12:45:06;7.73;;;5.93;;
6727;SDS011;3401;52.504;13.430;2022-07-25T12:47:35;4.90;;;4.40;;
6727;SDS011;3401;52.504;13.430;2022-07-25T12:50:03;5.13;;;4.60;;
6727;SDS011;3401;52.504;13.430;2022-07-25T12:52:31;8.15;;;5.30;;
6727;SDS011;3401;52.504;13.430;2022-07-25T12:54:59;6.38;;;5.80;;
6727;SDS011;3401;52.504;13.430;2022-07-25T12:57:27;5.50;;;4.27;;
6727;SDS011;3401;52.504;13.430;2022-07-25T12:59:56;6.27;;;4.80;;
6727;SDS011;3401;52.504;13.430;2022-07-25T13:02:24;5.30;;;4.90;;
6727;SDS011;3401;52.504;13.430;2022-07-25T13:04:52;7.28;;;6.53;;
6727;SDS011;3401;52.504;13.430;2022-07-25T13:07:20;5.60;;;4.68;;
6727;SDS011;3401;52.504;13.430;2022-07-25T13:09:48;6.70;;;4.95;;
6727;SDS011;3401;52.504;13.430;2022-07-25T13:12:16;6.43;;;4.72;;
6727;SDS011;3401;52.504;13.430;2022-07-25T13:14:44;6.80;;;5.10;;
6727;SDS011;3401;52.504;13.430;2022-07-25T13:17:13;5.40;;;4.90;;
6727;SDS011;3401;52.504;13.430;2022-07-25T13:19:41;5.00;;;4.50;;
6727;SDS011;3401;52.504;13.430;2022-07-25T13:22:09;7.35;;;4.80;;
6727;SDS011;3401;52.504;13.430;2022-07-25T13:24:36;6.38;;;4.80;;
6727;SDS011;3401;52.504;13.430;2022-07-25T13:27:04;45.60;;;29.63;;
6727;SDS011;3401;52.504;13.430;2022-07-25T13:29:33;5.37;;;4.87;;
6727;SDS011;3401;52.504;13.430;2022-07-25T13:32:01;6.40;;;5.60;;
6727;SDS011;3401;52.504;13.430;2022-07-25T13:34:32;7.40;;;6.23;;
6727;SDS011;3401;52.504;13.430;2022-07-25T13:37:00;7.20;;;5.00;;
6727;SDS011;3401;52.504;13.430;2022-07-25T13:39:29;5.30;;;4.80;;
6727;SDS011;3401;52.504;13.430;2022-07-25T13:41:57;6.00;;;5.43;;
6727;SDS011;3401;52.504;13.430;2022-07-25T13:44:25;5.83;;;5.23;;
6727;SDS011;3401;52.504;13.430;2022-07-25T13:46:56;7.47;;;4.97;;
6727;SDS011;3401;52.504;13.430;2022-07-25T13:49:25;11.90;;;5.60;;
6727;SDS011;3401;52.504;13.430;2022-07-25T13:51:54;5.50;;;4.93;;
6727;SDS011;3401;52.504;13.430;2022-07-25T13:54:22;5.10;;;4.63;;
6727;SDS011;3401;52.504;13.430;2022-07-25T13:56:50;6.50;;;5.40;;
6727;SDS011;3401;52.504;13.430;2022-07-25T13:59:18;6.47;;;5.60;;
6727;SDS011;3401;52.504;13.430;2022-07-25T14:01:47;6.17;;;5.57;;
6727;SDS011;3401;52.504;13.430;2022-07-25T14:04:15;5.47;;;4.67;;
6727;SDS011;3401;52.504;13.430;2022-07-25T14:06:43;5.80;;;4.80;;
6727;SDS011;3401;52.504;13.430;2022-07-25T14:09:13;816.33;;;734.90;;
6727;SDS011;3401;52.504;13.430;2022-07-25T14:11:41;6.93;;;4.87;;
6727;SDS011;3401;52.504;13.430;2022-07-25T14:14:08;6.90;;;5.27;;
6727;SDS011;3401;52.504;13.430;2022-07-25T14:16:36;9.30;;;6.10;;
6727;SDS011;3401;52.504;13.430;2022-07-25T14:19:04;9.60;;;6.23;;
6727;SDS011;3401;52.504;13.430;2022-07-25T14:21:33;6.17;;;5.57;;
6727;SDS011;3401;52.504;13.430;2022-07-25T14:24:01;15.20;;;13.70;;
6727;SDS011;3401;52.504;13.430;2022-07-25T14:26:31;6.53;;;5.10;;
6727;SDS011;3401;52.504;13.430;2022-07-25T14:29:00;10.57;;;6.28;;
6727;SDS011;3401;52.504;13.430;2022-07-25T14:31:28;6.32;;;5.72;;